sensor_id;sensor_type;location;lat;lon;timestamp;P1;durP1;ratioP1;P2;durP2;ratioP2
63046;SDS011;62025;39.238;9.126;2023-02-28T00:01:22;5.25;;;1.20;;
63046;SDS011;62025;39.238;9.126;2023-02-28T00:03:49;3.05;;;1.30;;
63046;SDS011;62025;39.238;9.126;2023-02-28T00:06:15;2.65;;;1.10;;
63046;SDS011;62025;39.238;9.126;2023-02-28T00:08:42;4.75;;;0.95;;
63046;SDS011;62025;39.238;9.126;2023-02-28T00:11:10;4.18;;;1.00;;
63046;SDS011;62025;39.238;9.126;2023-02-28T00:13:39;4.13;;;1.00;;
63046;SDS011;62025;39.238;9.126;2023-02-28T00:16:12;3.88;;;1.00;;
63046;SDS011;62025;39.238;9.126;2023-02-28T00:18:45;2.92;;;1.60;;
63046;SDS011;62025;39.238;9.126;2023-02-28T00:21:12;4.43;;;2.33;;
63046;SDS011;62025;39.238;9.126;2023-02-28T00:23:38;5.72;;;3.05;;
63046;SDS011;62025;39.238;9.126;2023-02-28T00:26:05;4.28;;;2.70;;
63046;SDS011;62025;39.238;9.126;2023-02-28T00:28:32;6.75;;;2.80;;
63046;SDS011;62025;39.238;9.126;2023-02-28T00:30:58;5.95;;;2.47;;
63046;SDS011;62025;39.238;9.126;2023-02-28T00:33:25;8.15;;;2.90;;
63046;SDS011;62025;39.238;9.126;2023-02-28T00:36:00;8.20;;;2.17;;
63046;SDS011;62025;39.238;9.126;2023-02-28T00:38:37;5.95;;;2.00;;
63046;SDS011;62025;39.238;9.126;2023-02-28T00:41:04;5.05;;;2.00;;
63046;SDS011;62025;39.238;9.126;2023-02-28T00:43:34;2.90;;;1.70;;
63046;SDS011;62025;39.238;9.126;2023-02-28T00:46:02;7.93;;;1.55;;
63046;SDS011;62025;39.238;9.126;2023-02-28T00:48:29;3.90;;;1.33;;
63046;SDS011;62025;39.238;9.126;2023-02-28T00:50:56;2.53;;;1.20;;
63046;SDS011;62025;39.238;9.126;2023-02-28T00:53:22;2.97;;;1.17;;
63046;SDS011;62025;39.238;9.126;2023-02-28T00:55:49;5.05;;;1.40;;
63046;SDS011;62025;39.238;9.126;2023-02-28T00:58:15;3.13;;;1.23;;
63046;SDS011;62025;39.238;9.126;2023-02-28T01:00:41;3.00;;;1.23;;
63046;SDS011;62025;39.238;9.126;2023-02-28T01:03:10;3.03;;;1.02;;
63046;SDS011;62025;39.238;9.126;2023-02-28T01:05:36;3.92;;;1.15;;
63046;SDS011;62025;39.238;9.126;2023-02-28T01:08:02;1.95;;;0.80;;
63046;SDS011;62025;39.238;9.126;2023-02-28T01:10:28;2.42;;;0.90;;
63046;SDS011;62025;39.238;9.126;2023-02-28T01:12:56;3.00;;;0.70;;
63046;SDS011;62025;39.238;9.126;2023-02-28T01:15:23;1.13;;;0.80;;
63046;SDS011;62025;39.238;9.126;2023-02-28T01:17:49;0.90;;;0.60;;
63046;SDS011;62025;39.238;9.126;2023-02-28T01:20:15;1.45;;;0.70;;
63046;SDS011;62025;39.238;9.126;2023-02-28T01:22:41;1.67;;;0.63;;
63046;SDS011;62025;39.238;9.126;2023-02-28T01:25:07;0.60;;;0.55;;
63046;SDS011;62025;39.238;9.126;2023-02-28T01:27:33;0.60;;;0.60;;
63046;SDS011;62025;39.238;9.126;2023-02-28T01:30:01;1.00;;;0.52;;
63046;SDS011;62025;39.238;9.126;2023-02-28T01:32:28;0.93;;;0.60;;
63046;SDS011;62025;39.238;9.126;2023-02-28T01:34:54;2.17;;;0.60;;
63046;SDS011;62025;39.238;9.126;2023-02-28T01:37:22;1.30;;;0.60;;
63046;SDS011;62025;39.238;9.126;2023-02-28T01:39:48;1.10;;;0.55;;
63046;SDS011;62025;39.238;9.126;2023-02-28T01:42:14;1.08;;;0.40;;
63046;SDS011;62025;39.238;9.126;2023-02-28T01:45:00;1.13;;;0.50;;
63046;SDS011;62025;39.238;9.126;2023-02-28T01:47:40;1.45;;;0.75;;
63046;SDS011;62025;39.238;9.126;2023-02-28T01:50:09;3.17;;;0.80;;
63046;SDS011;62025;39.238;9.126;2023-02-28T01:52:41;1.27;;;0.82;;
63046;SDS011;62025;39.238;9.126;2023-02-28T01:55:08;1.30;;;0.70;;
63046;SDS011;62025;39.238;9.126;2023-02-28T01:57:44;2.72;;;0.80;;
63046;SDS011;62025;39.238;9.126;2023-02-28T02:00:15;3.10;;;1.30;;
63046;SDS011;62025;39.238;9.126;2023-02-28T02:02:47;1.38;;;1.05;;
63046;SDS011;62025;39.238;9.126;2023-02-28T02:05:18;2.65;;;1.10;;
63046;SDS011;62025;39.238;9.126;2023-02-28T02:07:51;1.60;;;1.30;;
63046;SDS011;62025;39.238;9.126;2023-02-28T02:10:32;2.40;;;1.10;;
63046;SDS011;62025;39.238;9.126;2023-02-28T02:16:37;1.20;;;0.73;;
63046;SDS011;62025;39.238;9.126;2023-02-28T02:26:07;0.65;;;0.57;;
63046;SDS011;62025;39.238;9.126;2023-02-28T02:31:33;0.50;;;0.50;;
63046;SDS011;62025;39.238;9.126;2023-02-28T02:34:23;0.90;;;0.57;;
63046;SDS011;62025;39.238;9.126;2023-02-28T02:37:25;1.25;;;0.40;;
63046;SDS011;62025;39.238;9.126;2023-02-28T02:40:18;1.50;;;0.50;;
63046;SDS011;62025;39.238;9.126;2023-02-28T02:45:30;0.40;;;0.40;;
63046;SDS011;62025;39.238;9.126;2023-02-28T02:50:42;0.85;;;0.50;;
63046;SDS011;62025;39.238;9.126;2023-02-28T02:53:15;0.40;;;0.40;;
63046;SDS011;62025;39.238;9.126;2023-02-28T02:55:47;1.58;;;0.60;;
63046;SDS011;62025;39.238;9.126;2023-02-28T02:58:21;1.73;;;0.40;;
63046;SDS011;62025;39.238;9.126;2023-02-28T03:00:56;0.88;;;0.60;;
63046;SDS011;62025;39.238;9.126;2023-02-28T03:03:26;1.23;;;0.82;;
63046;SDS011;62025;39.238;9.126;2023-02-28T03:05:59;1.40;;;0.70;;
63046;SDS011;62025;39.238;9.126;2023-02-28T03:08:28;0.95;;;0.50;;
63046;SDS011;62025;39.238;9.126;2023-02-28T03:11:03;1.85;;;0.73;;
63046;SDS011;62025;39.238;9.126;2023-02-28T03:24:40;0.50;;;0.50;;
63046;SDS011;62025;39.238;9.126;2023-02-28T03:27:23;1.17;;;0.60;;
63046;SDS011;62025;39.238;9.126;2023-02-28T03:32:30;5.05;;;1.00;;
63046;SDS011;62025;39.238;9.126;2023-02-28T03:37:48;2.05;;;0.70;;
63046;SDS011;62025;39.238;9.126;2023-02-28T03:40:28;3.35;;;0.80;;
63046;SDS011;62025;39.238;9.126;2023-02-28T03:42:59;1.33;;;0.60;;
63046;SDS011;62025;39.238;9.126;2023-02-28T03:45:32;2.45;;;0.60;;
63046;SDS011;62025;39.238;9.126;2023-02-28T03:50:38;4.00;;;1.00;;
63046;SDS011;62025;39.238;9.126;2023-02-28T03:55:37;2.10;;;0.60;;
63046;SDS011;62025;39.238;9.126;2023-02-28T03:58:30;2.25;;;0.80;;
63046;SDS011;62025;39.238;9.126;2023-02-28T04:01:20;4.03;;;0.70;;
63046;SDS011;62025;39.238;9.126;2023-02-28T04:04:09;4.05;;;0.90;;
63046;SDS011;62025;39.238;9.126;2023-02-28T04:06:37;2.13;;;1.00;;
63046;SDS011;62025;39.238;9.126;2023-02-28T04:09:05;4.28;;;1.10;;
63046;SDS011;62025;39.238;9.126;2023-02-28T04:11:34;3.33;;;0.83;;
63046;SDS011;62025;39.238;9.126;2023-02-28T04:14:05;2.78;;;1.10;;
63046;SDS011;62025;39.238;9.126;2023-02-28T04:16:33;2.60;;;0.90;;
63046;SDS011;62025;39.238;9.126;2023-02-28T04:19:02;4.93;;;1.25;;
63046;SDS011;62025;39.238;9.126;2023-02-28T04:21:34;4.88;;;1.25;;
63046;SDS011;62025;39.238;9.126;2023-02-28T04:24:14;1.60;;;0.65;;
63046;SDS011;62025;39.238;9.126;2023-02-28T04:26:44;2.67;;;0.80;;
63046;SDS011;62025;39.238;9.126;2023-02-28T04:29:13;1.13;;;0.88;;
63046;SDS011;62025;39.238;9.126;2023-02-28T04:31:44;4.55;;;1.17;;
63046;SDS011;62025;39.238;9.126;2023-02-28T04:34:10;2.80;;;0.90;;
63046;SDS011;62025;39.238;9.126;2023-02-28T04:36:36;2.38;;;0.80;;
63046;SDS011;62025;39.238;9.126;2023-02-28T04:39:02;4.05;;;1.00;;
63046;SDS011;62025;39.238;9.126;2023-02-28T04:41:29;1.85;;;0.85;;
63046;SDS011;62025;39.238;9.126;2023-02-28T04:43:55;5.10;;;1.63;;
63046;SDS011;62025;39.238;9.126;2023-02-28T04:46:21;1.80;;;0.80;;
63046;SDS011;62025;39.238;9.126;2023-02-28T04:48:48;3.83;;;1.10;;
63046;SDS011;62025;39.238;9.126;2023-02-28T04:51:16;2.17;;;1.00;;
63046;SDS011;62025;39.238;9.126;2023-02-28T04:53:43;3.70;;;1.20;;
63046;SDS011;62025;39.238;9.126;2023-02-28T04:56:13;7.88;;;1.33;;
63046;SDS011;62025;39.238;9.126;2023-02-28T04:58:41;2.88;;;0.80;;
63046;SDS011;62025;39.238;9.126;2023-02-28T05:01:21;2.20;;;0.88;;
63046;SDS011;62025;39.238;9.126;2023-02-28T05:03:51;3.13;;;1.20;;
63046;SDS011;62025;39.238;9.126;2023-02-28T05:08:46;4.30;;;1.33;;
63046;SDS011;62025;39.238;9.126;2023-02-28T05:11:14;3.47;;;0.98;;
63046;SDS011;62025;39.238;9.126;2023-02-28T05:13:43;2.17;;;1.02;;
63046;SDS011;62025;39.238;9.126;2023-02-28T05:16:10;4.50;;;1.00;;
63046;SDS011;62025;39.238;9.126;2023-02-28T05:18:36;3.30;;;1.08;;
63046;SDS011;62025;39.238;9.126;2023-02-28T05:21:03;1.85;;;0.80;;
63046;SDS011;62025;39.238;9.126;2023-02-28T05:23:29;3.90;;;1.05;;
63046;SDS011;62025;39.238;9.126;2023-02-28T05:25:55;3.13;;;1.00;;
63046;SDS011;62025;39.238;9.126;2023-02-28T05:28:22;2.33;;;1.00;;
63046;SDS011;62025;39.238;9.126;2023-02-28T05:30:48;4.50;;;1.20;;
63046;SDS011;62025;39.238;9.126;2023-02-28T05:33:14;4.25;;;1.00;;
63046;SDS011;62025;39.238;9.126;2023-02-28T05:35:40;3.25;;;1.00;;
63046;SDS011;62025;39.238;9.126;2023-02-28T05:38:08;4.50;;;1.20;;
63046;SDS011;62025;39.238;9.126;2023-02-28T05:40:34;5.15;;;1.30;;
63046;SDS011;62025;39.238;9.126;2023-02-28T05:43:00;3.28;;;1.75;;
63046;SDS011;62025;39.238;9.126;2023-02-28T05:45:26;2.78;;;1.52;;
63046;SDS011;62025;39.238;9.126;2023-02-28T05:47:55;4.57;;;1.27;;
63046;SDS011;62025;39.238;9.126;2023-02-28T05:50:21;2.42;;;1.42;;
63046;SDS011;62025;39.238;9.126;2023-02-28T05:52:51;2.28;;;1.17;;
63046;SDS011;62025;39.238;9.126;2023-02-28T05:55:17;3.42;;;1.20;;
63046;SDS011;62025;39.238;9.126;2023-02-28T05:57:43;3.28;;;1.20;;
63046;SDS011;62025;39.238;9.126;2023-02-28T06:00:09;1.95;;;1.10;;
63046;SDS011;62025;39.238;9.126;2023-02-28T06:02:39;4.75;;;1.20;;
63046;SDS011;62025;39.238;9.126;2023-02-28T06:05:07;1.65;;;1.15;;
63046;SDS011;62025;39.238;9.126;2023-02-28T06:07:42;2.40;;;1.25;;
63046;SDS011;62025;39.238;9.126;2023-02-28T06:10:09;3.67;;;1.40;;
63046;SDS011;62025;39.238;9.126;2023-02-28T06:12:37;4.22;;;1.40;;
63046;SDS011;62025;39.238;9.126;2023-02-28T06:15:03;3.65;;;1.55;;
63046;SDS011;62025;39.238;9.126;2023-02-28T06:17:30;3.42;;;1.63;;
63046;SDS011;62025;39.238;9.126;2023-02-28T06:19:56;6.25;;;1.90;;
63046;SDS011;62025;39.238;9.126;2023-02-28T06:22:22;3.42;;;1.60;;
63046;SDS011;62025;39.238;9.126;2023-02-28T06:24:48;3.80;;;1.98;;
63046;SDS011;62025;39.238;9.126;2023-02-28T06:27:14;2.38;;;1.10;;
63046;SDS011;62025;39.238;9.126;2023-02-28T06:29:40;4.22;;;1.40;;
63046;SDS011;62025;39.238;9.126;2023-02-28T06:32:06;1.98;;;1.42;;
63046;SDS011;62025;39.238;9.126;2023-02-28T06:34:32;1.48;;;1.08;;
63046;SDS011;62025;39.238;9.126;2023-02-28T06:36:59;1.88;;;1.00;;
63046;SDS011;62025;39.238;9.126;2023-02-28T06:39:29;2.90;;;1.25;;
63046;SDS011;62025;39.238;9.126;2023-02-28T06:41:56;3.37;;;1.43;;
63046;SDS011;62025;39.238;9.126;2023-02-28T06:44:22;1.73;;;1.35;;
63046;SDS011;62025;39.238;9.126;2023-02-28T06:46:49;2.00;;;1.20;;
63046;SDS011;62025;39.238;9.126;2023-02-28T06:49:15;3.28;;;1.40;;
63046;SDS011;62025;39.238;9.126;2023-02-28T06:51:42;2.72;;;1.50;;
63046;SDS011;62025;39.238;9.126;2023-02-28T06:54:12;3.03;;;1.60;;
63046;SDS011;62025;39.238;9.126;2023-02-28T06:56:39;4.30;;;2.17;;
63046;SDS011;62025;39.238;9.126;2023-02-28T06:59:05;5.90;;;1.80;;
63046;SDS011;62025;39.238;9.126;2023-02-28T07:01:31;3.45;;;1.67;;
63046;SDS011;62025;39.238;9.126;2023-02-28T07:03:58;5.05;;;1.88;;
63046;SDS011;62025;39.238;9.126;2023-02-28T07:06:25;2.80;;;1.60;;
63046;SDS011;62025;39.238;9.126;2023-02-28T07:08:51;3.83;;;1.77;;
63046;SDS011;62025;39.238;9.126;2023-02-28T07:11:18;5.60;;;2.20;;
63046;SDS011;62025;39.238;9.126;2023-02-28T07:13:47;2.60;;;1.80;;
63046;SDS011;62025;39.238;9.126;2023-02-28T07:16:16;2.75;;;1.60;;
63046;SDS011;62025;39.238;9.126;2023-02-28T07:18:42;2.92;;;1.58;;
63046;SDS011;62025;39.238;9.126;2023-02-28T07:21:08;3.03;;;1.80;;
63046;SDS011;62025;39.238;9.126;2023-02-28T07:23:35;4.47;;;2.33;;
63046;SDS011;62025;39.238;9.126;2023-02-28T07:26:03;6.13;;;2.65;;
63046;SDS011;62025;39.238;9.126;2023-02-28T07:28:31;5.60;;;3.28;;
63046;SDS011;62025;39.238;9.126;2023-02-28T07:31:02;4.65;;;2.88;;
63046;SDS011;62025;39.238;9.126;2023-02-28T07:33:32;6.22;;;2.97;;
63046;SDS011;62025;39.238;9.126;2023-02-28T07:36:09;3.80;;;2.50;;
63046;SDS011;62025;39.238;9.126;2023-02-28T07:38:39;5.50;;;2.95;;
63046;SDS011;62025;39.238;9.126;2023-02-28T07:41:05;4.95;;;3.17;;
63046;SDS011;62025;39.238;9.126;2023-02-28T07:43:31;5.32;;;2.85;;
63046;SDS011;62025;39.238;9.126;2023-02-28T07:46:01;4.80;;;2.80;;
63046;SDS011;62025;39.238;9.126;2023-02-28T07:48:29;4.57;;;2.70;;
63046;SDS011;62025;39.238;9.126;2023-02-28T07:50:56;5.40;;;2.60;;
63046;SDS011;62025;39.238;9.126;2023-02-28T07:53:22;6.22;;;2.60;;
63046;SDS011;62025;39.238;9.126;2023-02-28T07:55:48;5.60;;;2.78;;
63046;SDS011;62025;39.238;9.126;2023-02-28T07:58:14;5.05;;;2.70;;
63046;SDS011;62025;39.238;9.126;2023-02-28T08:00:40;4.70;;;2.67;;
63046;SDS011;62025;39.238;9.126;2023-02-28T08:03:08;7.13;;;3.00;;
63046;SDS011;62025;39.238;9.126;2023-02-28T08:05:38;9.25;;;3.63;;
63046;SDS011;62025;39.238;9.126;2023-02-28T08:08:05;4.25;;;2.85;;
63046;SDS011;62025;39.238;9.126;2023-02-28T08:10:32;5.75;;;3.58;;
63046;SDS011;62025;39.238;9.126;2023-02-28T08:12:59;5.15;;;2.50;;
63046;SDS011;62025;39.238;9.126;2023-02-28T08:15:25;3.65;;;2.33;;
63046;SDS011;62025;39.238;9.126;2023-02-28T08:17:51;4.47;;;2.67;;
63046;SDS011;62025;39.238;9.126;2023-02-28T08:20:17;5.65;;;2.40;;
63046;SDS011;62025;39.238;9.126;2023-02-28T08:22:43;4.65;;;2.22;;
63046;SDS011;62025;39.238;9.126;2023-02-28T08:25:09;4.18;;;2.00;;
63046;SDS011;62025;39.238;9.126;2023-02-28T08:27:36;3.78;;;2.00;;
63046;SDS011;62025;39.238;9.126;2023-02-28T08:30:02;3.42;;;2.30;;
63046;SDS011;62025;39.238;9.126;2023-02-28T08:32:29;5.30;;;3.15;;
63046;SDS011;62025;39.238;9.126;2023-02-28T08:34:55;5.47;;;2.95;;
63046;SDS011;62025;39.238;9.126;2023-02-28T08:37:21;3.55;;;2.30;;
63046;SDS011;62025;39.238;9.126;2023-02-28T08:39:47;4.00;;;2.10;;
63046;SDS011;62025;39.238;9.126;2023-02-28T08:42:13;2.88;;;2.08;;
63046;SDS011;62025;39.238;9.126;2023-02-28T08:44:39;2.50;;;1.80;;
63046;SDS011;62025;39.238;9.126;2023-02-28T08:47:05;5.10;;;2.67;;
63046;SDS011;62025;39.238;9.126;2023-02-28T08:49:31;4.85;;;2.83;;
63046;SDS011;62025;39.238;9.126;2023-02-28T08:51:58;6.03;;;3.53;;
63046;SDS011;62025;39.238;9.126;2023-02-28T08:54:24;7.25;;;3.80;;
63046;SDS011;62025;39.238;9.126;2023-02-28T08:56:50;8.00;;;4.55;;
63046;SDS011;62025;39.238;9.126;2023-02-28T08:59:16;10.52;;;4.57;;
63046;SDS011;62025;39.238;9.126;2023-02-28T09:01:43;9.77;;;5.93;;
63046;SDS011;62025;39.238;9.126;2023-02-28T09:04:10;13.45;;;6.57;;
63046;SDS011;62025;39.238;9.126;2023-02-28T09:06:36;10.02;;;7.25;;
63046;SDS011;62025;39.238;9.126;2023-02-28T09:09:03;9.82;;;6.53;;
63046;SDS011;62025;39.238;9.126;2023-02-28T09:11:31;9.77;;;5.90;;
63046;SDS011;62025;39.238;9.126;2023-02-28T09:13:58;7.93;;;5.50;;
63046;SDS011;62025;39.238;9.126;2023-02-28T09:16:25;6.90;;;5.68;;
63046;SDS011;62025;39.238;9.126;2023-02-28T09:18:52;6.80;;;5.35;;
63046;SDS011;62025;39.238;9.126;2023-02-28T09:21:18;6.55;;;4.80;;
63046;SDS011;62025;39.238;9.126;2023-02-28T09:23:45;6.85;;;5.03;;
63046;SDS011;62025;39.238;9.126;2023-02-28T09:26:18;7.47;;;5.13;;
63046;SDS011;62025;39.238;9.126;2023-02-28T09:28:47;6.60;;;4.32;;
63046;SDS011;62025;39.238;9.126;2023-02-28T09:31:14;8.32;;;3.85;;
63046;SDS011;62025;39.238;9.126;2023-02-28T09:33:46;5.90;;;3.30;;
63046;SDS011;62025;39.238;9.126;2023-02-28T09:36:14;4.90;;;2.70;;
63046;SDS011;62025;39.238;9.126;2023-02-28T09:38:40;5.60;;;3.30;;
63046;SDS011;62025;39.238;9.126;2023-02-28T09:41:16;6.28;;;2.92;;
63046;SDS011;62025;39.238;9.126;2023-02-28T09:43:47;3.47;;;2.97;;
63046;SDS011;62025;39.238;9.126;2023-02-28T09:49:16;4.57;;;2.90;;
63046;SDS011;62025;39.238;9.126;2023-02-28T09:51:50;5.63;;;3.15;;
63046;SDS011;62025;39.238;9.126;2023-02-28T09:54:24;3.42;;;3.03;;
63046;SDS011;62025;39.238;9.126;2023-02-28T10:00:20;5.80;;;3.42;;
63046;SDS011;62025;39.238;9.126;2023-02-28T10:09:02;9.57;;;4.45;;
63046;SDS011;62025;39.238;9.126;2023-02-28T10:11:34;6.43;;;4.05;;
63046;SDS011;62025;39.238;9.126;2023-02-28T10:14:10;6.50;;;3.90;;
63046;SDS011;62025;39.238;9.126;2023-02-28T10:16:43;5.43;;;3.30;;
63046;SDS011;62025;39.238;9.126;2023-02-28T10:19:41;6.15;;;3.33;;
63046;SDS011;62025;39.238;9.126;2023-02-28T10:22:19;6.63;;;3.60;;
63046;SDS011;62025;39.238;9.126;2023-02-28T10:24:50;6.78;;;3.90;;
63046;SDS011;62025;39.238;9.126;2023-02-28T10:29:50;8.40;;;5.13;;
63046;SDS011;62025;39.238;9.126;2023-02-28T10:32:18;8.32;;;4.90;;
63046;SDS011;62025;39.238;9.126;2023-02-28T10:34:57;8.18;;;4.35;;
63046;SDS011;62025;39.238;9.126;2023-02-28T10:37:47;7.73;;;4.03;;
63046;SDS011;62025;39.238;9.126;2023-02-28T10:42:58;7.00;;;4.00;;
63046;SDS011;62025;39.238;9.126;2023-02-28T10:48:33;4.97;;;3.25;;
63046;SDS011;62025;39.238;9.126;2023-02-28T10:51:06;5.32;;;3.50;;
63046;SDS011;62025;39.238;9.126;2023-02-28T10:56:14;6.63;;;3.33;;
63046;SDS011;62025;39.238;9.126;2023-02-28T10:58:51;8.90;;;3.38;;
63046;SDS011;62025;39.238;9.126;2023-02-28T11:04:19;6.65;;;1.50;;
63046;SDS011;62025;39.238;9.126;2023-02-28T11:07:16;5.63;;;2.15;;
63046;SDS011;62025;39.238;9.126;2023-02-28T11:09:48;8.05;;;2.95;;
63046;SDS011;62025;39.238;9.126;2023-02-28T11:12:23;7.22;;;2.15;;
63046;SDS011;62025;39.238;9.126;2023-02-28T11:15:23;4.75;;;1.98;;
63046;SDS011;62025;39.238;9.126;2023-02-28T11:20:33;4.53;;;2.00;;
63046;SDS011;62025;39.238;9.126;2023-02-28T11:23:00;4.72;;;1.50;;
63046;SDS011;62025;39.238;9.126;2023-02-28T11:25:30;5.20;;;1.70;;
63046;SDS011;62025;39.238;9.126;2023-02-28T11:28:00;3.08;;;1.77;;
63046;SDS011;62025;39.238;9.126;2023-02-28T11:34:11;8.63;;;2.65;;
63046;SDS011;62025;39.238;9.126;2023-02-28T11:36:26;3.88;;;1.90;;
63046;SDS011;62025;39.238;9.126;2023-02-28T11:39:00;4.93;;;2.30;;
63046;SDS011;62025;39.238;9.126;2023-02-28T11:48:04;5.30;;;1.60;;
63046;SDS011;62025;39.238;9.126;2023-02-28T11:52:47;9.25;;;3.00;;
63046;SDS011;62025;39.238;9.126;2023-02-28T11:58:17;3.17;;;1.70;;
63046;SDS011;62025;39.238;9.126;2023-02-28T12:06:50;4.75;;;1.10;;
63046;SDS011;62025;39.238;9.126;2023-02-28T12:26:39;2.80;;;1.38;;
63046;SDS011;62025;39.238;9.126;2023-02-28T12:31:50;3.17;;;1.60;;
63046;SDS011;62025;39.238;9.126;2023-02-28T12:34:23;6.07;;;1.35;;
63046;SDS011;62025;39.238;9.126;2023-02-28T12:36:56;6.85;;;2.00;;
63046;SDS011;62025;39.238;9.126;2023-02-28T12:39:29;6.57;;;2.35;;
63046;SDS011;62025;39.238;9.126;2023-02-28T12:42:05;6.53;;;1.90;;
63046;SDS011;62025;39.238;9.126;2023-02-28T12:47:41;3.60;;;1.75;;
63046;SDS011;62025;39.238;9.126;2023-02-28T13:09:38;7.03;;;1.73;;
63046;SDS011;62025;39.238;9.126;2023-02-28T13:12:14;4.38;;;1.75;;
63046;SDS011;62025;39.238;9.126;2023-02-28T13:14:41;6.88;;;1.92;;
63046;SDS011;62025;39.238;9.126;2023-02-28T13:24:52;3.15;;;1.52;;
63046;SDS011;62025;39.238;9.126;2023-02-28T13:27:38;4.93;;;1.70;;
63046;SDS011;62025;39.238;9.126;2023-02-28T13:33:30;7.68;;;1.45;;
63046;SDS011;62025;39.238;9.126;2023-02-28T13:36:22;4.20;;;1.20;;
63046;SDS011;62025;39.238;9.126;2023-02-28T13:44:03;5.93;;;1.30;;
63046;SDS011;62025;39.238;9.126;2023-02-28T13:47:21;3.67;;;1.35;;
63046;SDS011;62025;39.238;9.126;2023-02-28T14:06:09;3.17;;;1.00;;
63046;SDS011;62025;39.238;9.126;2023-02-28T14:09:18;2.97;;;1.05;;
63046;SDS011;62025;39.238;9.126;2023-02-28T14:11:51;3.90;;;0.80;;
63046;SDS011;62025;39.238;9.126;2023-02-28T14:17:14;1.23;;;0.50;;
63046;SDS011;62025;39.238;9.126;2023-02-28T14:19:43;0.80;;;0.60;;
63046;SDS011;62025;39.238;9.126;2023-02-28T14:22:21;3.47;;;0.70;;
63046;SDS011;62025;39.238;9.126;2023-02-28T14:31:06;4.43;;;1.05;;
63046;SDS011;62025;39.238;9.126;2023-02-28T14:36:39;3.72;;;1.35;;
63046;SDS011;62025;39.238;9.126;2023-02-28T14:39:07;4.07;;;1.30;;
63046;SDS011;62025;39.238;9.126;2023-02-28T14:41:42;4.13;;;0.98;;
63046;SDS011;62025;39.238;9.126;2023-02-28T14:44:14;0.93;;;0.70;;
63046;SDS011;62025;39.238;9.126;2023-02-28T14:46:57;3.42;;;0.85;;
63046;SDS011;62025;39.238;9.126;2023-02-28T14:49:41;2.70;;;1.02;;
63046;SDS011;62025;39.238;9.126;2023-02-28T14:54:51;2.22;;;1.38;;
63046;SDS011;62025;39.238;9.126;2023-02-28T14:57:40;5.32;;;1.48;;
63046;SDS011;62025;39.238;9.126;2023-02-28T15:00:29;3.88;;;1.40;;
63046;SDS011;62025;39.238;9.126;2023-02-28T15:02:57;4.68;;;1.77;;
63046;SDS011;62025;39.238;9.126;2023-02-28T15:08:09;3.35;;;1.60;;
63046;SDS011;62025;39.238;9.126;2023-02-28T15:11:14;8.85;;;3.05;;
63046;SDS011;62025;39.238;9.126;2023-02-28T15:13:41;3.33;;;1.98;;
63046;SDS011;62025;39.238;9.126;2023-02-28T15:16:13;3.72;;;2.05;;
63046;SDS011;62025;39.238;9.126;2023-02-28T15:21:30;7.10;;;2.50;;
63046;SDS011;62025;39.238;9.126;2023-02-28T15:26:33;5.68;;;3.33;;
63046;SDS011;62025;39.238;9.126;2023-02-28T15:29:22;7.07;;;3.20;;
63046;SDS011;62025;39.238;9.126;2023-02-28T15:31:58;6.68;;;4.30;;
63046;SDS011;62025;39.238;9.126;2023-02-28T15:34:35;7.88;;;4.78;;
63046;SDS011;62025;39.238;9.126;2023-02-28T15:40:14;11.10;;;7.80;;
63046;SDS011;62025;39.238;9.126;2023-02-28T15:42:57;16.15;;;8.77;;
63046;SDS011;62025;39.238;9.126;2023-02-28T15:45:34;12.75;;;8.27;;
63046;SDS011;62025;39.238;9.126;2023-02-28T15:48:17;14.85;;;9.23;;
63046;SDS011;62025;39.238;9.126;2023-02-28T15:50:47;12.68;;;9.07;;
63046;SDS011;62025;39.238;9.126;2023-02-28T15:53:19;14.38;;;9.13;;
63046;SDS011;62025;39.238;9.126;2023-02-28T15:56:00;14.23;;;9.23;;
63046;SDS011;62025;39.238;9.126;2023-02-28T15:58:30;13.05;;;9.65;;
63046;SDS011;62025;39.238;9.126;2023-02-28T16:01:01;13.77;;;8.90;;
63046;SDS011;62025;39.238;9.126;2023-02-28T16:04:11;11.23;;;7.35;;
63046;SDS011;62025;39.238;9.126;2023-02-28T16:06:45;12.20;;;7.82;;
63046;SDS011;62025;39.238;9.126;2023-02-28T16:09:28;14.25;;;8.02;;
63046;SDS011;62025;39.238;9.126;2023-02-28T16:11:56;15.70;;;8.82;;
63046;SDS011;62025;39.238;9.126;2023-02-28T16:14:27;13.82;;;8.65;;
63046;SDS011;62025;39.238;9.126;2023-02-28T16:17:09;12.45;;;7.68;;
63046;SDS011;62025;39.238;9.126;2023-02-28T16:19:51;10.07;;;6.53;;
63046;SDS011;62025;39.238;9.126;2023-02-28T16:22:18;10.48;;;7.18;;
63046;SDS011;62025;39.238;9.126;2023-02-28T16:24:44;10.13;;;6.80;;
63046;SDS011;62025;39.238;9.126;2023-02-28T16:27:18;17.40;;;9.85;;
63046;SDS011;62025;39.238;9.126;2023-02-28T16:29:55;15.18;;;9.55;;
63046;SDS011;62025;39.238;9.126;2023-02-28T16:32:21;13.27;;;9.05;;
63046;SDS011;62025;39.238;9.126;2023-02-28T16:34:47;9.98;;;7.78;;
63046;SDS011;62025;39.238;9.126;2023-02-28T16:37:14;10.80;;;7.43;;
63046;SDS011;62025;39.238;9.126;2023-02-28T16:39:43;11.77;;;6.53;;
63046;SDS011;62025;39.238;9.126;2023-02-28T16:42:20;12.25;;;7.80;;
63046;SDS011;62025;39.238;9.126;2023-02-28T16:44:52;8.82;;;6.47;;
63046;SDS011;62025;39.238;9.126;2023-02-28T16:47:19;10.30;;;6.97;;
63046;SDS011;62025;39.238;9.126;2023-02-28T16:49:46;8.93;;;7.07;;
63046;SDS011;62025;39.238;9.126;2023-02-28T16:52:13;9.18;;;7.10;;
63046;SDS011;62025;39.238;9.126;2023-02-28T16:54:40;10.77;;;7.38;;
63046;SDS011;62025;39.238;9.126;2023-02-28T16:57:14;9.45;;;6.47;;
63046;SDS011;62025;39.238;9.126;2023-02-28T16:59:47;8.77;;;5.30;;
63046;SDS011;62025;39.238;9.126;2023-02-28T17:04:44;7.43;;;4.72;;
63046;SDS011;62025;39.238;9.126;2023-02-28T17:07:12;7.80;;;4.18;;
63046;SDS011;62025;39.238;9.126;2023-02-28T17:09:44;5.28;;;4.25;;
63046;SDS011;62025;39.238;9.126;2023-02-28T17:12:10;6.70;;;4.63;;
63046;SDS011;62025;39.238;9.126;2023-02-28T17:14:37;9.07;;;5.10;;
63046;SDS011;62025;39.238;9.126;2023-02-28T17:17:06;7.30;;;5.70;;
63046;SDS011;62025;39.238;9.126;2023-02-28T17:19:33;8.07;;;6.30;;
63046;SDS011;62025;39.238;9.126;2023-02-28T17:22:01;10.98;;;7.03;;
63046;SDS011;62025;39.238;9.126;2023-02-28T17:24:28;10.40;;;6.65;;
63046;SDS011;62025;39.238;9.126;2023-02-28T17:26:54;9.73;;;7.18;;
63046;SDS011;62025;39.238;9.126;2023-02-28T17:29:20;11.05;;;8.60;;
63046;SDS011;62025;39.238;9.126;2023-02-28T17:31:47;10.50;;;7.85;;
63046;SDS011;62025;39.238;9.126;2023-02-28T17:34:13;11.50;;;7.78;;
63046;SDS011;62025;39.238;9.126;2023-02-28T17:36:43;15.32;;;8.63;;
63046;SDS011;62025;39.238;9.126;2023-02-28T17:39:11;15.75;;;9.77;;
63046;SDS011;62025;39.238;9.126;2023-02-28T17:41:42;11.77;;;8.43;;
63046;SDS011;62025;39.238;9.126;2023-02-28T17:46:34;13.43;;;10.15;;
63046;SDS011;62025;39.238;9.126;2023-02-28T17:49:01;19.80;;;13.65;;
63046;SDS011;62025;39.238;9.126;2023-02-28T17:51:27;17.50;;;12.38;;
63046;SDS011;62025;39.238;9.126;2023-02-28T17:53:53;17.27;;;12.70;;
63046;SDS011;62025;39.238;9.126;2023-02-28T17:56:20;23.60;;;15.93;;
63046;SDS011;62025;39.238;9.126;2023-02-28T17:58:49;26.10;;;18.45;;
63046;SDS011;62025;39.238;9.126;2023-02-28T18:01:17;23.77;;;19.20;;
63046;SDS011;62025;39.238;9.126;2023-02-28T18:03:44;26.10;;;19.77;;
63046;SDS011;62025;39.238;9.126;2023-02-28T18:06:13;26.92;;;20.00;;
63046;SDS011;62025;39.238;9.126;2023-02-28T18:08:44;27.38;;;19.08;;
63046;SDS011;62025;39.238;9.126;2023-02-28T18:11:10;25.10;;;17.00;;
63046;SDS011;62025;39.238;9.126;2023-02-28T18:13:43;20.83;;;16.70;;
63046;SDS011;62025;39.238;9.126;2023-02-28T18:16:11;23.90;;;16.70;;
63046;SDS011;62025;39.238;9.126;2023-02-28T18:18:37;20.27;;;15.75;;
63046;SDS011;62025;39.238;9.126;2023-02-28T18:21:04;19.10;;;14.27;;
63046;SDS011;62025;39.238;9.126;2023-02-28T18:23:31;17.48;;;13.65;;
63046;SDS011;62025;39.238;9.126;2023-02-28T18:25:57;17.70;;;11.85;;